Time;durP1;ratioP1;P1;durP2;ratioP2;P2;SDS_P1;SDS_P2;PMS_P1;PMS_P2;Temp;Humidity;BMP_temperature;BMP_pressure;BME280_temperature;BME280_humidity;BME280_pressure;Samples;Min_cycle;Max_cycle;Signal;HPM_P1;HPM_P2
2022/02/19 00:02:04;;;;;;;;;0.25;0.25;;;;;19.61;33.95;101121.84;5057212;28;45225;-58
2022/02/19 00:04:29;;;;;;;;;0.00;0.00;;;;;19.61;33.79;101103.44;5056847;28;45582;-59
2022/02/19 00:06:54;;;;;;;;;0.00;0.00;;;;;19.61;34.45;101105.22;5057234;28;45269;-59
2022/02/19 00:09:19;;;;;;;;;2.75;0.00;;;;;19.60;33.85;101122.78;5057031;28;45360;-58
2022/02/19 00:11:45;;;;;;;;;1.00;0.00;;;;;19.61;34.06;101121.00;5057014;28;45416;-60
2022/02/19 00:14:11;;;;;;;;;1.50;1.00;;;;;19.62;34.09;101130.59;5056737;28;46092;-59
2022/02/19 00:16:37;;;;;;;;;0.25;0.25;;;;;19.60;33.85;101119.28;5056779;28;45712;-59
2022/02/19 00:19:03;;;;;;;;;1.00;0.50;;;;;19.59;34.08;101135.97;5057018;28;45364;-58
2022/02/19 00:21:28;;;;;;;;;0.25;0.00;;;;;19.59;33.84;101143.88;5057093;28;45391;-59
2022/02/19 00:23:54;;;;;;;;;1.00;1.00;;;;;19.61;34.13;101147.28;5056848;28;46394;-59
2022/02/19 00:26:19;;;;;;;;;2.00;1.00;;;;;19.61;33.86;101149.91;5056600;28;45362;-58
2022/02/19 00:28:44;;;;;;;;;1.00;0.00;;;;;19.61;33.92;101147.28;5056296;28;50926;-60
2022/02/19 00:31:10;;;;;;;;;0.25;0.25;;;;;19.57;33.88;101145.72;5038694;28;45614;-59
2022/02/19 00:33:36;;;;;;;;;1.00;1.00;;;;;19.59;33.92;101149.13;5056529;28;45487;-57
2022/02/19 00:36:01;;;;;;;;;1.00;0.25;;;;;19.57;34.06;101150.97;5056721;28;45428;-60
2022/02/19 00:38:26;;;;;;;;;0.25;0.25;;;;;19.58;33.81;101150.91;5056974;28;45248;-59
2022/02/19 00:40:52;;;;;;;;;1.00;1.00;;;;;19.56;33.85;101154.56;5056688;28;45311;-60
2022/02/19 00:43:17;;;;;;;;;1.75;0.00;;;;;19.59;33.80;101149.13;5056057;28;51045;-59
2022/02/19 00:45:43;;;;;;;;;0.00;0.00;;;;;19.58;34.18;101157.94;5056879;28;45427;-58
2022/02/19 00:48:08;;;;;;;;;4.00;1.00;;;;;19.58;33.90;101163.19;5056576;28;45234;-59
2022/02/19 00:50:34;;;;;;;;;3.25;0.00;;;;;19.57;33.91;101166.75;5038629;28;45301;-58
2022/02/19 00:52:59;;;;;;;;;0.00;0.00;;;;;19.55;34.30;101158.94;5056365;28;46600;-55
2022/02/19 00:55:25;;;;;;;;;0.25;0.25;;;;;19.56;33.94;101181.69;5056593;28;45390;-60
2022/02/19 00:57:50;;;;;;;;;1.00;0.00;;;;;19.55;34.13;101164.19;5056355;28;45607;-58
2022/02/19 01:00:16;;;;;;;;;0.00;0.00;;;;;19.55;34.32;101177.34;5055232;28;45283;-57
2022/02/19 01:02:42;;;;;;;;;1.50;1.00;;;;;19.53;34.00;101183.59;5055995;28;47910;-58
2022/02/19 01:05:09;;;;;;;;;0.00;0.00;;;;;19.55;33.76;101184.38;5056164;28;45455;-58
2022/02/19 01:07:35;;;;;;;;;1.00;1.00;;;;;19.54;33.87;101187.94;5056168;28;45328;-60
2022/02/19 01:10:00;;;;;;;;;2.00;1.00;;;;;19.54;34.33;101187.94;5056260;28;45276;-59
2022/02/19 01:12:26;;;;;;;;;0.00;0.00;;;;;19.53;34.01;101191.50;5056236;28;45548;-59
2022/02/19 01:14:51;;;;;;;;;0.00;0.00;;;;;19.54;33.77;101198.44;5055731;28;45470;-58
2022/02/19 01:17:17;;;;;;;;;2.50;0.00;;;;;19.53;34.16;101189.69;5056244;28;45268;-58
2022/02/19 01:19:42;;;;;;;;;0.75;0.00;;;;;19.54;33.74;101188.78;5056344;28;45229;-59
2022/02/19 01:22:07;;;;;;;;;0.50;0.00;;;;;19.52;33.97;101203.75;5055838;28;46142;-56
2022/02/19 01:24:34;;;;;;;;;0.00;0.00;;;;;19.53;33.81;101207.25;5055962;28;45328;-58
2022/02/19 01:26:59;;;;;;;;;1.00;0.25;;;;;19.53;34.02;101205.47;5056319;28;45341;-59
2022/02/19 01:29:24;;;;;;;;;0.25;0.25;;;;;19.53;34.08;101204.63;5056052;28;45724;-58
2022/02/19 01:31:50;;;;;;;;;1.00;1.00;;;;;19.51;34.03;101203.84;5055965;28;45417;-58
2022/02/19 01:34:15;;;;;;;;;0.75;0.75;;;;;19.54;33.73;101208.97;5055645;28;45423;-58
2022/02/19 01:36:41;;;;;;;;;0.25;0.25;;;;;19.52;34.15;101208.19;5055927;28;45302;-59
2022/02/19 01:39:07;;;;;;;;;0.00;0.00;;;;;19.49;33.95;101206.56;5056024;28;45625;-56
2022/02/19 01:41:32;;;;;;;;;2.50;0.75;;;;;19.51;34.10;101214.34;5055464;28;45324;-60
2022/02/19 01:44:07;;;;;;;;;1.00;0.00;;;;;19.50;33.73;101208.25;5059065;28;45327;-57
2022/02/19 01:46:33;;;;;;;;;0.00;0.00;;;;;19.51;33.97;101214.34;5059457;28;45270;-59
2022/02/19 01:48:58;;;;;;;;;1.50;1.00;;;;;19.50;33.53;101216.16;5059752;28;45335;-56
2022/02/19 01:51:24;;;;;;;;;0.00;0.00;;;;;19.50;33.54;101207.38;5058959;28;45238;-57
2022/02/19 01:53:49;;;;;;;;;0.50;0.50;;;;;19.46;33.94;101206.69;5058976;28;45386;-58
2022/02/19 01:56:15;;;;;;;;;1.25;0.00;;;;;19.51;34.10;101219.63;5059265;28;45562;-59
2022/02/19 01:58:41;;;;;;;;;0.00;0.00;;;;;19.51;33.57;101217.00;5059327;28;45229;-59
2022/02/19 02:01:06;;;;;;;;;0.00;0.00;;;;;19.50;34.08;101210.03;5058965;28;46660;-59
2022/02/19 02:03:32;;;;;;;;;2.00;0.00;;;;;19.50;33.92;101217.91;5059163;28;45368;-58
2022/02/19 02:05:57;;;;;;;;;0.00;0.00;;;;;19.48;33.95;101220.63;5059476;28;45359;-59
2022/02/19 02:08:23;;;;;;;;;1.25;0.50;;;;;19.50;33.94;101228.41;5059012;28;45218;-58
2022/02/19 02:10:49;;;;;;;;;1.25;1.00;;;;;19.48;33.82;101225.88;5058847;28;46105;-58
2022/02/19 02:13:14;;;;;;;;;0.75;0.00;;;;;19.47;34.10;101235.53;5058736;28;45233;-58
2022/02/19 02:15:39;;;;;;;;;0.00;0.00;;;;;19.47;34.08;101222.38;5058708;28;45327;-60
2022/02/19 02:18:05;;;;;;;;;0.50;0.00;;;;;19.47;33.93;101225.00;5059156;28;45326;-59
2022/02/19 02:20:30;;;;;;;;;0.75;0.75;;;;;19.47;33.85;101229.41;5058969;28;46075;-59
2022/02/19 02:22:57;;;;;;;;;0.00;0.00;;;;;19.48;33.85;101225.88;5058706;28;45370;-59
2022/02/19 02:25:28;;;;;;;;;1.00;0.00;;;;;19.47;33.96;101232.88;5058781;28;45502;-58
2022/02/19 02:27:55;;;;;;;;;0.75;0.25;;;;;19.47;33.81;101225.00;5058837;28;45206;-57
2022/02/19 02:30:21;;;;;;;;;0.00;0.00;;;;;19.45;33.72;101226.88;5058408;28;46644;-58
2022/02/19 02:32:46;;;;;;;;;0.00;0.00;;;;;19.47;34.03;101224.16;5058456;28;45323;-58
2022/02/19 02:35:12;;;;;;;;;3.00;0.00;;;;;19.47;33.86;101234.69;5058545;28;45494;-59
2022/02/19 02:37:37;;;;;;;;;1.00;0.00;;;;;19.47;34.00;101229.41;5058573;28;45582;-59
2022/02/19 02:40:03;;;;;;;;;1.00;1.00;;;;;19.46;33.82;101223.28;5058714;28;47075;-59
2022/02/19 02:42:29;;;;;;;;;0.75;0.75;;;;;19.47;33.70;101218.91;5058617;28;45321;-60
2022/02/19 02:44:54;;;;;;;;;1.00;0.00;;;;;19.44;34.12;101219.91;5058474;28;45300;-59
2022/02/19 02:47:20;;;;;;;;;0.00;0.00;;;;;19.45;33.64;101218.97;5058545;28;45639;-60
2022/02/19 02:49:45;;;;;;;;;3.00;1.00;;;;;19.46;33.58;101222.44;5058102;28;46429;-58
2022/02/19 02:52:10;;;;;;;;;0.00;0.00;;;;;19.45;33.96;101224.25;5057976;28;45515;-60
2022/02/19 02:54:36;;;;;;;;;1.00;1.00;;;;;19.46;34.14;101222.44;5056988;28;45300;-61
2022/02/19 02:57:02;;;;;;;;;0.00;0.00;;;;;19.46;33.91;101219.81;5058720;28;45586;-59
2022/02/19 02:59:28;;;;;;;;;0.50;0.00;;;;;19.46;33.67;101227.72;5057948;28;45291;-60
2022/02/19 03:01:53;;;;;;;;;0.00;0.00;;;;;19.44;33.61;101219.91;5057951;28;45352;-59
2022/02/19 03:04:18;;;;;;;;;0.50;0.00;;;;;19.45;33.59;101234.75;5058109;28;45415;-61
2022/02/19 03:06:44;;;;;;;;;0.00;0.00;;;;;19.42;33.77;101237.50;5058179;28;45431;-59
2022/02/19 03:09:09;;;;;;;;;3.25;1.00;;;;;19.42;34.15;101236.66;5057767;28;45336;-59
2022/02/19 03:11:35;;;;;;;;;1.50;0.75;;;;;19.41;33.68;101234.94;5040105;28;45361;-57
2022/02/19 03:14:02;;;;;;;;;2.00;0.00;;;;;19.43;33.96;101236.59;5058124;28;45304;-60
2022/02/19 03:16:28;;;;;;;;;0.25;0.25;;;;;19.43;33.86;101244.47;5058041;28;45509;-58
2022/02/19 03:18:53;;;;;;;;;1.50;0.00;;;;;19.40;34.03;101239.34;5057629;28;45504;-59
2022/02/19 03:21:19;;;;;;;;;0.00;0.00;;;;;19.41;34.26;101251.56;5057680;28;45475;-60
2022/02/19 03:23:44;;;;;;;;;0.00;0.00;;;;;19.40;33.79;101241.97;5057896;28;45308;-58
2022/02/19 03:26:09;;;;;;;;;3.75;0.00;;;;;19.40;33.68;101255.13;5057835;28;45407;-59
2022/02/19 03:28:36;;;;;;;;;0.00;0.00;;;;;19.41;33.65;101256.84;5057888;28;46385;-59
2022/02/19 03:31:02;;;;;;;;;2.75;0.00;;;;;19.42;33.70;101261.16;5057797;28;45661;-57
2022/02/19 03:33:27;;;;;;;;;0.50;0.00;;;;;19.41;34.15;101256.84;5057660;28;45217;-59
2022/02/19 03:35:54;;;;;;;;;0.00;0.00;;;;;19.38;33.66;101262.22;5057677;28;45360;-59
2022/02/19 03:38:20;;;;;;;;;0.00;0.00;;;;;19.40;33.93;101260.38;5057278;28;46525;-59
2022/02/19 03:40:46;;;;;;;;;1.25;0.00;;;;;19.40;33.79;101273.53;5057412;28;45522;-59
2022/02/19 03:43:11;;;;;;;;;1.75;0.00;;;;;19.38;33.53;101264.00;5057419;28;45293;-59
2022/02/19 03:45:39;;;;;;;;;1.00;0.50;;;;;19.40;33.85;101267.44;5057515;28;45397;-56
2022/02/19 03:48:04;;;;;;;;;2.00;2.00;;;;;19.40;33.72;101268.25;5057516;28;46483;-59
2022/02/19 03:50:30;;;;;;;;;2.25;0.00;;;;;19.36;33.88;101264.06;5039150;28;45459;-60
2022/02/19 03:52:56;;;;;;;;;0.00;0.00;;;;;19.38;33.89;101267.47;5057344;28;45341;-58
2022/02/19 03:55:21;;;;;;;;;0.25;0.25;;;;;19.39;33.99;101263.94;5057431;28;45533;-58
2022/02/19 03:57:46;;;;;;;;;0.00;0.00;;;;;19.39;33.56;101281.50;5057081;28;46506;-59
2022/02/19 04:00:13;;;;;;;;;0.75;0.75;;;;;19.36;33.81;101276.34;5057029;28;45266;-58
2022/02/19 04:02:41;;;;;;;;;0.00;0.00;;;;;19.40;34.02;101280.56;5057095;28;45427;-55
2022/02/19 04:05:08;;;;;;;;;2.00;2.00;;;;;19.39;33.72;101281.50;5057003;28;45315;-60
2022/02/19 04:07:34;;;;;;;;;1.00;0.00;;;;;19.38;33.90;101283.25;5057138;28;45444;-59
2022/02/19 04:09:59;;;;;;;;;0.25;0.25;;;;;19.37;33.68;101276.28;5038939;28;45498;-59
2022/02/19 04:12:25;;;;;;;;;1.00;1.00;;;;;19.38;33.69;101280.63;5056924;28;45311;-57
2022/02/19 04:14:51;;;;;;;;;0.75;0.00;;;;;19.37;33.96;101281.53;5056952;28;45606;-57
2022/02/19 04:17:16;;;;;;;;;1.00;0.00;;;;;19.36;33.77;101292.13;5056823;28;46268;-57
2022/02/19 04:19:42;;;;;;;;;2.00;0.75;;;;;19.36;34.16;101298.22;5056663;28;45346;-59
2022/02/19 04:22:08;;;;;;;;;1.25;1.00;;;;;19.35;33.69;101293.88;5057327;28;45329;-59
2022/02/19 04:24:34;;;;;;;;;0.50;0.50;;;;;19.37;34.01;101301.72;5056965;28;45629;-59
2022/02/19 04:26:59;;;;;;;;;0.25;0.25;;;;;19.35;34.10;101306.19;5056510;28;45546;-59
2022/02/19 04:29:24;;;;;;;;;1.00;0.00;;;;;19.36;33.67;101316.63;5056695;28;45203;-59
2022/02/19 04:31:54;;;;;;;;;0.00;0.00;;;;;19.32;33.79;101304.56;5038644;28;45385;-59
2022/02/19 04:34:21;;;;;;;;;0.00;0.00;;;;;19.35;33.61;101314.91;5056731;28;45562;-57
2022/02/19 04:36:46;;;;;;;;;1.00;0.00;;;;;19.36;33.96;101328.91;5056529;28;46270;-58
2022/02/19 04:39:12;;;;;;;;;2.00;0.00;;;;;19.35;33.71;101325.41;5056431;28;45285;-57
2022/02/19 04:41:37;;;;;;;;;0.25;0.00;;;;;19.34;33.69;101323.75;5056907;28;45353;-57
2022/02/19 04:44:03;;;;;;;;;0.00;0.00;;;;;19.34;33.64;101329.00;5038553;28;45298;-59
2022/02/19 04:46:28;;;;;;;;;2.00;0.00;;;;;19.34;33.82;101333.38;5056292;28;46476;-59
2022/02/19 04:48:53;;;;;;;;;0.00;0.00;;;;;19.34;33.99;101343.91;5056281;28;45220;-58
2022/02/19 04:51:19;;;;;;;;;1.75;0.00;;;;;19.34;34.05;101350.03;5056273;28;45440;-60
2022/02/19 04:53:44;;;;;;;;;0.00;0.00;;;;;19.34;33.76;101351.78;5056530;28;45329;-59
2022/02/19 04:56:10;;;;;;;;;0.50;0.50;;;;;19.33;33.62;101347.44;5056503;28;45423;-59
2022/02/19 04:58:36;;;;;;;;;0.00;0.00;;;;;19.32;33.78;101354.47;5056445;28;45896;-58
2022/02/19 05:01:01;;;;;;;;;2.75;0.00;;;;;19.31;33.75;101353.63;5056413;28;45383;-59
2022/02/19 05:03:27;;;;;;;;;0.00;0.00;;;;;19.31;33.77;101360.66;5056306;28;45586;-58
2022/02/19 05:05:52;;;;;;;;;0.00;0.00;;;;;19.30;33.96;101369.47;5055984;28;46345;-57
2022/02/19 05:08:17;;;;;;;;;0.00;0.00;;;;;19.31;34.00;101358.03;5056006;28;45403;-58
2022/02/19 05:10:43;;;;;;;;;0.00;0.00;;;;;19.31;33.89;101358.88;5056072;28;45440;-59
2022/02/19 05:13:08;;;;;;;;;0.00;0.00;;;;;19.33;33.66;101357.97;5056516;28;45637;-56
2022/02/19 05:15:34;;;;;;;;;0.75;0.00;;;;;19.29;33.93;101360.69;5037621;28;47425;-59
2022/02/19 05:18:02;;;;;;;;;1.50;0.75;;;;;19.31;33.52;101365.91;5057487;28;45441;-60
2022/02/19 05:20:28;;;;;;;;;1.00;1.00;;;;;19.30;34.00;101370.31;5059769;28;45241;-56
2022/02/19 05:22:54;;;;;;;;;1.25;0.75;;;;;19.29;33.60;101375.63;5059934;28;45278;-56
2022/02/19 05:25:20;;;;;;;;;0.00;0.00;;;;;19.30;33.71;101377.34;5059407;28;46364;-56
2022/02/19 05:27:45;;;;;;;;;1.00;0.00;;;;;19.28;33.94;101382.69;5059628;28;45456;-59
2022/02/19 05:30:12;;;;;;;;;0.00;0.00;;;;;19.31;33.93;101389.56;5059932;28;45375;-56
2022/02/19 05:32:37;;;;;;;;;0.00;0.00;;;;;19.29;33.96;101383.50;5059363;28;45633;-57
2022/02/19 05:35:04;;;;;;;;;0.25;0.00;;;;;19.29;34.05;101383.50;5059502;28;45358;-55
2022/02/19 05:37:30;;;;;;;;;0.50;0.00;;;;;19.29;33.83;101381.72;5059245;28;45364;-56
2022/02/19 05:39:57;;;;;;;;;2.00;0.00;;;;;19.29;34.10;101379.09;5059573;28;45399;-55
2022/02/19 05:42:22;;;;;;;;;0.00;0.00;;;;;19.27;33.72;101377.47;5059621;28;45258;-56
2022/02/19 05:44:47;;;;;;;;;0.50;0.50;;;;;19.28;33.55;101381.81;5057928;28;46226;-55
2022/02/19 05:47:13;;;;;;;;;0.50;0.00;;;;;19.27;33.57;101375.72;5059587;28;45798;-57
2022/02/19 05:49:38;;;;;;;;;2.00;0.25;;;;;19.26;33.66;101384.50;5059525;28;45328;-57
2022/02/19 05:52:04;;;;;;;;;0.00;0.00;;;;;19.28;33.99;101384.44;5059431;28;45242;-55
2022/02/19 05:54:30;;;;;;;;;1.25;1.00;;;;;19.26;33.94;101384.50;5059175;28;45397;-57
2022/02/19 05:56:55;;;;;;;;;1.00;0.50;;;;;19.27;34.18;101377.47;5040907;28;45438;-57
2022/02/19 05:59:20;;;;;;;;;0.75;0.75;;;;;19.26;33.47;101379.25;5059094;28;45380;-57
2022/02/19 06:01:46;;;;;;;;;2.00;0.00;;;;;19.27;33.84;101386.22;5059195;28;45460;-58
2022/02/19 06:04:11;;;;;;;;;0.50;0.50;;;;;19.25;34.00;101377.53;5024458;28;47098;-57
2022/02/19 06:06:37;;;;;;;;;0.25;0.25;;;;;19.25;34.03;101384.53;5058840;28;45433;-58
2022/02/19 06:09:02;;;;;;;;;0.00;0.00;;;;;19.24;33.92;101382.84;5059055;28;45376;-59
2022/02/19 06:11:28;;;;;;;;;0.50;0.00;;;;;19.25;33.58;101379.28;5041011;28;45510;-57
2022/02/19 06:13:53;;;;;;;;;0.00;0.00;;;;;19.24;33.75;101381.09;5058597;28;46577;-59
2022/02/19 06:16:18;;;;;;;;;0.00;0.00;;;;;19.25;33.66;101387.19;5058800;28;45364;-58
2022/02/19 06:18:44;;;;;;;;;0.00;0.00;;;;;19.22;34.09;101392.59;5041307;28;45410;-58
2022/02/19 06:21:09;;;;;;;;;1.00;1.00;;;;;19.24;33.85;101396.84;5058883;28;45629;-57
2022/02/19 06:23:35;;;;;;;;;1.00;0.00;;;;;19.24;33.90;101399.47;5058699;28;46310;-58
2022/02/19 06:26:00;;;;;;;;;0.25;0.25;;;;;19.24;33.73;101396.84;5057353;28;45422;-59
2022/02/19 06:28:25;;;;;;;;;0.00;0.00;;;;;19.21;33.69;101394.34;5058362;28;45225;-58
2022/02/19 06:30:51;;;;;;;;;1.00;1.00;;;;;19.23;33.76;101394.28;5058662;28;45229;-58
2022/02/19 06:33:16;;;;;;;;;1.00;0.00;;;;;19.24;34.02;101398.59;5058380;28;46153;-58
2022/02/19 06:35:42;;;;;;;;;2.25;0.00;;;;;19.23;33.92;101399.56;5058886;28;45252;-59
2022/02/19 06:38:07;;;;;;;;;0.00;0.00;;;;;19.22;33.55;101403.94;5058675;28;45232;-57
2022/02/19 06:40:33;;;;;;;;;1.00;1.00;;;;;19.19;33.52;101396.16;5058608;28;45541;-56
2022/02/19 06:42:58;;;;;;;;;1.00;0.25;;;;;19.22;33.81;101409.19;5058174;28;46344;-55
2022/02/19 06:45:24;;;;;;;;;0.00;0.00;;;;;19.19;33.58;101408.47;5058086;28;45367;-58
2022/02/19 06:47:49;;;;;;;;;0.00;0.00;;;;;19.21;33.69;101427.66;5058503;28;45205;-57
2022/02/19 06:50:15;;;;;;;;;1.00;0.00;;;;;19.22;33.84;101429.38;5058720;28;45158;-58
2022/02/19 06:52:40;;;;;;;;;0.00;0.00;;;;;19.22;33.34;101429.38;5058327;28;45632;-57
2022/02/19 06:55:07;;;;;;;;;0.25;0.25;;;;;19.20;33.76;101424.16;5058100;28;45352;-59
2022/02/19 06:57:33;;;;;;;;;0.00;0.00;;;;;19.19;33.91;101437.38;5058097;28;45364;-57
2022/02/19 06:59:58;;;;;;;;;1.00;1.00;;;;;19.19;33.82;101445.25;5056971;28;45565;-57
2022/02/19 07:02:23;;;;;;;;;0.50;0.00;;;;;19.19;33.74;101450.50;5057884;28;45458;-58
2022/02/19 07:04:49;;;;;;;;;2.25;0.00;;;;;19.20;33.67;101454.84;5057953;28;45409;-58
2022/02/19 07:07:15;;;;;;;;;0.25;0.25;;;;;19.20;33.46;101462.72;5058568;28;45329;-59
2022/02/19 07:09:41;;;;;;;;;0.00;0.00;;;;;19.19;33.49;101458.41;5058262;28;45415;-59
2022/02/19 07:12:07;;;;;;;;;0.75;0.00;;;;;19.18;33.39;101460.19;5057618;28;45414;-57
2022/02/19 07:14:33;;;;;;;;;0.50;0.00;;;;;19.19;33.82;101458.41;5058247;28;45309;-57
2022/02/19 07:17:04;;;;;;;;;1.00;0.25;;;;;19.18;33.49;101470.69;5057926;28;45258;-56
2022/02/19 07:19:31;;;;;;;;;0.00;0.00;;;;;19.19;33.44;101471.53;5058142;28;45358;-58
2022/02/19 07:21:56;;;;;;;;;0.00;0.00;;;;;19.16;33.32;101457.59;5057621;28;46259;-58
2022/02/19 07:24:21;;;;;;;;;1.00;0.00;;;;;19.19;33.70;101471.53;5057668;28;45375;-59
2022/02/19 07:26:47;;;;;;;;;0.00;0.00;;;;;19.18;33.82;101473.31;5058027;28;45344;-56
2022/02/19 07:29:12;;;;;;;;;1.00;0.00;;;;;19.19;33.50;101479.41;5057844;28;45529;-58
2022/02/19 07:31:37;;;;;;;;;0.00;0.00;;;;;19.18;33.49;101475.06;5057325;28;46359;-58
2022/02/19 07:34:02;;;;;;;;;0.25;0.25;;;;;19.19;33.75;101479.41;5057513;28;45179;-57
2022/02/19 07:36:28;;;;;;;;;1.25;1.00;;;;;19.18;33.64;101480.31;5057638;28;45271;-60
2022/02/19 07:38:53;;;;;;;;;4.00;1.00;;;;;19.16;33.85;101481.25;5039476;28;45262;-56
2022/02/19 07:41:19;;;;;;;;;0.25;0.00;;;;;19.18;33.74;101490.84;5056567;28;46107;-56
2022/02/19 07:43:45;;;;;;;;;1.00;1.00;;;;;19.16;33.77;101494.38;5039456;28;45355;-56
2022/02/19 07:46:11;;;;;;;;;1.50;0.00;;;;;19.18;33.54;101493.47;5056325;28;45392;-56
2022/02/19 07:48:36;;;;;;;;;0.00;0.00;;;;;19.19;33.68;101497.81;5057462;28;45567;-57
2022/02/19 07:59:13;;;;;;;;;1.00;1.00;;;;;19.16;33.29;101504.06;5057292;28;45340;-58
2022/02/19 08:01:39;;;;;;;;;0.00;0.00;;;;;19.17;33.86;101518.91;5057057;28;46404;-57
2022/02/19 08:04:04;;;;;;;;;0.75;0.00;;;;;19.17;33.30;101518.91;5056943;28;45326;-57
2022/02/19 08:06:29;;;;;;;;;0.00;0.00;;;;;19.17;33.50;101521.53;5057230;28;45388;-58
2022/02/19 08:08:55;;;;;;;;;3.00;0.00;;;;;19.18;33.64;101522.38;5057178;28;45259;-56
2022/02/19 08:11:20;;;;;;;;;1.50;0.50;;;;;19.16;33.37;101532.94;5056819;28;46249;-59
2022/02/19 08:13:46;;;;;;;;;1.00;1.00;;;;;19.15;33.67;101516.31;5056984;28;45430;-59
2022/02/19 08:16:11;;;;;;;;;1.50;0.00;;;;;19.16;33.32;101535.59;5057038;28;45342;-58
2022/02/19 08:18:37;;;;;;;;;2.00;1.00;;;;;19.18;33.45;101531.13;5057110;28;45379;-58
2022/02/19 08:21:04;;;;;;;;;1.00;1.00;;;;;19.18;33.49;101527.63;5056870;28;46142;-58
2022/02/19 08:23:29;;;;;;;;;0.00;0.00;;;;;19.14;33.74;101511.97;5055236;28;45711;-57
2022/02/19 08:25:55;;;;;;;;;1.50;0.00;;;;;19.15;33.56;101525.97;5056903;28;45400;-59
2022/02/19 08:28:21;;;;;;;;;1.00;0.50;;;;;19.16;33.57;101527.69;5057503;28;45802;-59
2022/02/19 08:30:47;;;;;;;;;0.00;0.00;;;;;19.15;33.72;101518.94;5056752;28;46448;-58
2022/02/19 08:33:13;;;;;;;;;0.00;0.00;;;;;19.18;33.55;101525.88;5055633;28;45778;-56
2022/02/19 08:35:40;;;;;;;;;0.00;0.00;;;;;19.19;33.79;101530.19;5056759;28;45415;-58
2022/02/19 08:38:07;;;;;;;;;0.00;0.00;;;;;19.18;33.43;101519.75;5038658;28;45260;-58
2022/02/19 08:40:33;;;;;;;;;0.00;0.00;;;;;19.19;33.57;101518.84;5056411;28;46912;-59
2022/02/19 08:42:58;;;;;;;;;0.00;0.00;;;;;19.18;33.45;101525.88;5056415;28;45408;-59
2022/02/19 08:45:23;;;;;;;;;1.00;0.00;;;;;19.19;33.46;101534.59;5056530;28;45424;-60
2022/02/19 08:47:54;;;;;;;;;0.00;0.00;;;;;19.19;33.96;101545.09;5057109;28;45420;-59
2022/02/19 08:50:20;;;;;;;;;0.00;0.00;;;;;19.19;33.78;101539.84;5038296;28;48253;-57
2022/02/19 08:52:48;;;;;;;;;0.50;0.50;;;;;19.18;33.37;101544.28;5056217;28;45719;-59
2022/02/19 08:55:15;;;;;;;;;1.00;1.00;;;;;19.16;33.72;101536.41;5056305;28;45329;-57
2022/02/19 08:57:40;;;;;;;;;2.75;1.00;;;;;19.20;33.58;101545.03;5056612;28;45460;-60
2022/02/19 09:00:09;;;;;;;;;0.50;0.00;;;;;19.21;33.87;101549.38;5056124;28;46481;-56
2022/02/19 09:02:35;;;;;;;;;2.75;0.75;;;;;19.18;33.59;101548.66;5056001;28;45835;-58
2022/02/19 09:05:01;;;;;;;;;0.00;0.00;;;;;19.21;33.57;101553.78;5056194;28;45288;-58
2022/02/19 09:07:27;;;;;;;;;0.00;0.00;;;;;19.22;33.81;101556.34;5056364;28;45387;-57
2022/02/19 09:09:53;;;;;;;;;0.00;0.00;;;;;19.22;33.55;101560.78;5056130;28;46427;-58
2022/02/19 09:12:18;;;;;;;;;0.00;0.00;;;;;19.23;33.56;101562.50;5056290;28;45298;-62
2022/02/19 09:14:43;;;;;;;;;0.00;0.00;;;;;19.19;33.94;101560.88;5056089;28;45317;-59
2022/02/19 09:17:09;;;;;;;;;2.00;0.75;;;;;19.22;33.61;101568.66;5056213;28;45579;-58
2022/02/19 09:19:34;;;;;;;;;1.00;0.00;;;;;19.22;33.73;101568.66;5055933;28;46533;-59
2022/02/19 09:22:01;;;;;;;;;1.50;0.00;;;;;19.24;33.76;101569.44;5055835;28;45316;-59
2022/02/19 09:24:27;;;;;;;;;1.00;1.00;;;;;19.23;34.10;101557.22;5056005;28;45241;-61
2022/02/19 09:26:53;;;;;;;;;2.25;0.75;;;;;19.25;33.59;101560.63;5056556;28;45537;-57
2022/02/19 09:29:18;;;;;;;;;1.75;1.75;;;;;19.21;33.90;101548.53;5037619;28;46125;-58
2022/02/19 09:31:43;;;;;;;;;0.00;0.00;;;;;19.20;33.76;101536.31;5055838;28;45310;-59
2022/02/19 09:34:09;;;;;;;;;1.00;1.00;;;;;19.27;34.08;101548.28;5055896;28;45715;-59
2022/02/19 09:36:35;;;;;;;;;3.25;0.00;;;;;19.25;33.74;101544.84;5056258;28;45691;-59
2022/02/19 09:39:00;;;;;;;;;2.00;0.50;;;;;19.27;33.88;101548.28;5055677;28;45350;-61
2022/02/19 09:41:27;;;;;;;;;0.00;0.00;;;;;19.25;33.88;101539.59;5055841;28;45362;-59
2022/02/19 09:43:53;;;;;;;;;0.00;0.00;;;;;19.27;33.95;101550.91;5056266;28;45300;-59
2022/02/19 09:46:19;;;;;;;;;1.00;0.00;;;;;19.23;34.28;101533.56;5056049;28;45408;-60
2022/02/19 09:48:46;;;;;;;;;0.00;0.00;;;;;19.28;33.83;101539.50;5055442;28;45596;-59
2022/02/19 09:51:12;;;;;;;;;1.25;0.50;;;;;19.28;33.92;101537.75;5055532;28;45676;-59
2022/02/19 09:53:38;;;;;;;;;0.25;0.25;;;;;19.28;34.14;101535.13;5055691;28;45229;-59
2022/02/19 09:56:04;;;;;;;;;1.00;0.00;;;;;19.29;33.84;101552.56;5055864;28;45509;-58
2022/02/19 09:58:32;;;;;;;;;0.00;0.00;;;;;19.28;34.01;101547.38;5055403;28;46370;-60
2022/02/19 10:01:23;;;;;;;;;0.00;0.00;;;;;19.29;33.93;101543.84;5055491;28;45368;-59
2022/02/19 10:03:57;;;;;;;;;0.00;0.00;;;;;19.30;33.79;101548.19;5057103;28;45280;-58
2022/02/19 10:06:28;;;;;;;;;0.75;0.50;;;;;19.31;33.84;101549.91;5059712;28;45178;-57
2022/02/19 10:09:19;;;;;;;;;0.75;0.00;;;;;19.31;34.03;101539.38;5041102;28;48226;-58
2022/02/19 10:11:46;;;;;;;;;0.00;0.00;;;;;19.32;33.78;101530.59;5057540;28;45823;-57
2022/02/19 10:14:26;;;;;;;;;0.00;0.00;;;;;19.34;34.05;101534.00;5058828;28;45440;-59
2022/02/19 10:17:27;;;;;;;;;0.50;0.50;;;;;19.31;34.04;101529.72;5059300;28;45368;-59
2022/02/19 10:19:56;;;;;;;;;1.00;1.00;;;;;19.34;34.04;101531.38;4977418;28;45417;-58
2022/02/19 10:22:26;;;;;;;;;0.25;0.25;;;;;19.34;33.99;101522.63;5043307;28;45893;-60
2022/02/19 10:24:58;;;;;;;;;0.00;0.00;;;;;19.34;33.71;101527.88;5040942;28;45388;-60
2022/02/19 10:27:46;;;;;;;;;0.00;0.00;;;;;19.34;34.05;101526.13;5041575;28;45260;-60
2022/02/19 10:30:32;;;;;;;;;1.00;1.00;;;;;19.34;33.98;101522.63;5058500;28;46364;-60
2022/02/19 10:33:03;;;;;;;;;0.25;0.00;;;;;19.30;33.90;101508.75;5058107;28;45383;-59
2022/02/19 10:35:38;;;;;;;;;0.50;0.50;;;;;19.33;34.08;101526.16;5058420;28;45218;-59
2022/02/19 10:38:17;;;;;;;;;2.00;1.00;;;;;19.34;34.09;101528.75;5057431;28;45328;-59
2022/02/19 10:40:52;;;;;;;;;0.00;0.00;;;;;19.33;33.99;101519.16;5058300;28;46343;-60
2022/02/19 10:43:22;;;;;;;;;1.00;0.50;;;;;19.35;34.02;101517.31;5058246;28;45437;-59
2022/02/19 10:46:14;;;;;;;;;0.25;0.00;;;;;19.36;33.97;101521.66;5058537;28;45257;-57
2022/02/19 10:48:39;;;;;;;;;0.00;0.00;;;;;19.35;33.75;101525.19;5054539;28;45387;-59
2022/02/19 10:51:15;;;;;;;;;1.00;1.00;;;;;19.36;34.11;101532.16;5057922;28;46304;-57
2022/02/19 10:53:45;;;;;;;;;0.00;0.00;;;;;19.35;34.03;101526.97;5057897;28;45395;-57
2022/02/19 10:56:16;;;;;;;;;1.00;1.00;;;;;19.36;33.80;101512.91;5058339;28;45411;-59
2022/02/19 10:59:04;;;;;;;;;0.00;0.00;;;;;19.36;33.76;101505.88;5058436;28;45329;-59
2022/02/19 11:01:45;;;;;;;;;0.00;0.00;;;;;19.35;34.02;101508.56;5058236;28;45463;-60
2022/02/19 11:04:12;;;;;;;;;2.50;0.00;;;;;19.37;33.42;101506.75;5057939;28;45449;-60
2022/02/19 11:06:39;;;;;;;;;0.00;0.00;;;;;19.35;33.97;101517.31;5058239;28;45273;-57
2022/02/19 11:09:06;;;;;;;;;1.00;1.00;;;;;19.37;33.74;101512.84;5058258;28;45336;-58
2022/02/19 11:11:33;;;;;;;;;0.00;0.00;;;;;19.39;33.55;101515.44;5057800;28;45319;-59
2022/02/19 11:14:01;;;;;;;;;3.00;1.00;;;;;19.39;33.73;101523.31;5057783;28;45850;-56
2022/02/19 11:16:27;;;;;;;;;1.00;0.00;;;;;19.37;34.01;101515.47;5057120;28;45328;-60
2022/02/19 11:18:54;;;;;;;;;2.00;0.00;;;;;19.38;33.89;101509.31;5058076;28;45308;-56
2022/02/19 11:21:21;;;;;;;;;1.00;0.00;;;;;19.39;33.58;101511.00;5057569;28;46473;-60
2022/02/19 11:23:47;;;;;;;;;1.25;0.25;;;;;19.38;33.54;101498.78;5057684;28;45391;-59
2022/02/19 11:26:17;;;;;;;;;0.00;0.00;;;;;19.38;33.53;101498.78;5057757;28;45395;-57
2022/02/19 11:28:42;;;;;;;;;0.50;0.25;;;;;19.40;34.00;101499.59;5057971;28;45346;-60
2022/02/19 11:31:09;;;;;;;;;0.25;0.00;;;;;19.40;33.78;101490.84;5057307;28;46542;-61